createdAt,value
2017-11-27T00:00:59.381Z,5.17
2017-11-27T00:03:28.231Z,4.23
2017-11-27T00:05:57.108Z,5.17
2017-11-27T00:08:25.955Z,4.43
2017-11-27T00:10:54.824Z,4.07
2017-11-27T00:13:23.671Z,4.27
2017-11-27T00:15:52.559Z,4.83
2017-11-27T00:18:21.412Z,4.67
2017-11-27T00:20:50.368Z,4.20
2017-11-27T00:23:19.221Z,4.87
2017-11-27T00:25:48.075Z,3.80
2017-11-27T00:28:16.960Z,3.90
2017-11-27T00:30:45.816Z,4.00
2017-11-27T00:33:14.696Z,4.60
2017-11-27T00:35:43.552Z,5.13
2017-11-27T00:38:12.417Z,4.47
2017-11-27T00:40:41.276Z,4.30
2017-11-27T00:43:10.188Z,3.97
2017-11-27T00:45:39.043Z,4.03
2017-11-27T00:48:07.915Z,4.53
2017-11-27T00:50:36.800Z,3.70
2017-11-27T00:53:05.671Z,4.67
2017-11-27T00:55:34.547Z,4.10
2017-11-27T00:58:03.398Z,3.77
2017-11-27T01:00:32.267Z,3.97
2017-11-27T01:03:01.114Z,4.33
2017-11-27T01:05:29.988Z,3.70
2017-11-27T01:07:58.843Z,3.40
2017-11-27T01:10:27.698Z,4.00
2017-11-27T01:12:56.563Z,3.30
2017-11-27T01:15:25.491Z,3.70
2017-11-27T01:17:54.363Z,3.60
2017-11-27T01:20:23.217Z,3.53
2017-11-27T01:22:52.079Z,3.40
2017-11-27T01:25:20.927Z,3.30
2017-11-27T01:27:49.911Z,3.93
2017-11-27T01:30:18.779Z,3.90
2017-11-27T01:32:47.640Z,3.57
2017-11-27T01:35:16.519Z,4.03
2017-11-27T01:37:45.371Z,4.40
2017-11-27T01:40:14.377Z,3.80
2017-11-27T01:42:43.328Z,4.27
2017-11-27T01:45:12.186Z,4.73
2017-11-27T01:47:41.063Z,5.00
2017-11-27T01:50:09.921Z,5.73
2017-11-27T01:52:38.818Z,5.33
2017-11-27T01:55:07.669Z,5.07
2017-11-27T01:57:36.542Z,4.67
2017-11-27T02:00:05.413Z,5.87
2017-11-27T02:02:35.053Z,4.50
2017-11-27T02:05:03.903Z,4.90
2017-11-27T02:07:32.762Z,6.03
2017-11-27T02:10:01.644Z,4.77
2017-11-27T02:12:30.487Z,4.30
2017-11-27T02:14:59.365Z,5.30
2017-11-27T02:17:28.209Z,4.60
2017-11-27T02:19:57.059Z,4.30
2017-11-27T02:22:25.923Z,5.07
2017-11-27T02:24:54.767Z,4.70
2017-11-27T02:27:23.666Z,4.53
2017-11-27T02:29:52.523Z,4.40
2017-11-27T02:32:21.373Z,3.83
2017-11-27T02:34:50.236Z,3.60
2017-11-27T02:37:19.081Z,4.07
2017-11-27T02:39:47.971Z,4.20
2017-11-27T02:42:16.820Z,4.20
2017-11-27T02:44:45.738Z,4.30
2017-11-27T02:47:14.773Z,4.57
2017-11-27T02:49:43.615Z,3.90
2017-11-27T02:52:12.505Z,4.13
2017-11-27T02:54:41.356Z,4.50
2017-11-27T02:57:10.255Z,4.03
2017-11-27T02:59:39.132Z,4.00
2017-11-27T03:02:07.985Z,4.20
2017-11-27T03:04:36.910Z,4.00
2017-11-27T03:07:05.751Z,3.90
2017-11-27T03:09:34.621Z,3.53
2017-11-27T03:12:03.572Z,4.30
2017-11-27T03:14:32.428Z,4.10
2017-11-27T03:17:01.600Z,3.57
2017-11-27T03:19:30.464Z,4.20
2017-11-27T03:21:59.321Z,4.13
2017-11-27T03:24:28.183Z,4.30
2017-11-27T03:26:57.040Z,4.10
2017-11-27T03:29:25.940Z,3.57
2017-11-27T03:31:54.779Z,3.43
2017-11-27T03:34:23.624Z,4.57
2017-11-27T03:36:52.487Z,4.00
2017-11-27T03:39:21.335Z,3.50
2017-11-27T03:41:50.209Z,3.90
2017-11-27T03:44:19.059Z,3.97
2017-11-27T03:46:47.954Z,3.40
2017-11-27T03:49:16.826Z,3.50
2017-11-27T03:51:45.672Z,3.43
2017-11-27T03:54:14.536Z,3.60
2017-11-27T03:56:43.397Z,3.50
2017-11-27T03:59:12.305Z,2.93
2017-11-27T04:01:41.159Z,3.03
2017-11-27T04:04:10.005Z,3.70
2017-11-27T04:06:38.885Z,4.10
2017-11-27T04:09:07.768Z,3.70
2017-11-27T04:11:36.915Z,3.17
2017-11-27T04:14:05.768Z,3.37
2017-11-27T04:16:34.641Z,2.87
2017-11-27T04:19:03.515Z,3.67
2017-11-27T04:21:32.646Z,3.40
2017-11-27T04:24:01.574Z,3.60
2017-11-27T04:26:30.458Z,3.60
2017-11-27T04:28:59.310Z,3.50
2017-11-27T04:31:28.178Z,3.27
2017-11-27T04:33:57.039Z,3.07
2017-11-27T04:36:25.926Z,2.80
2017-11-27T04:38:54.825Z,2.50
2017-11-27T04:41:23.709Z,2.80
2017-11-27T04:43:52.680Z,2.57
2017-11-27T04:46:21.548Z,2.83
2017-11-27T04:48:50.556Z,2.90
2017-11-27T04:51:19.407Z,3.67
2017-11-27T04:53:48.251Z,2.60
2017-11-27T04:56:17.113Z,3.20
2017-11-27T04:58:45.956Z,2.80
2017-11-27T05:01:14.871Z,2.97
2017-11-27T05:03:43.723Z,2.73
2017-11-27T05:06:12.595Z,1.90
2017-11-27T05:08:41.465Z,2.30
2017-11-27T05:11:10.312Z,2.73
2017-11-27T05:13:39.212Z,3.37
2017-11-27T05:16:08.056Z,2.40
2017-11-27T05:18:36.907Z,2.17
2017-11-27T05:21:05.768Z,1.90
2017-11-27T05:23:34.619Z,2.93
2017-11-27T05:26:03.500Z,2.13
2017-11-27T05:28:32.359Z,2.40
2017-11-27T05:31:01.208Z,1.97
2017-11-27T05:33:30.158Z,2.20
2017-11-27T05:35:59.009Z,2.40
2017-11-27T05:38:27.877Z,1.87
2017-11-27T05:40:56.723Z,2.30
2017-11-27T05:43:25.613Z,1.90
2017-11-27T05:45:54.478Z,2.10
2017-11-27T05:48:23.330Z,2.03
2017-11-27T05:50:52.204Z,1.87
2017-11-27T05:53:21.072Z,1.93
2017-11-27T05:55:49.935Z,2.20
2017-11-27T05:58:18.795Z,2.07
2017-11-27T06:00:47.670Z,2.13
2017-11-27T06:03:16.528Z,2.23
2017-11-27T06:05:45.374Z,2.30
2017-11-27T06:08:14.243Z,2.40
2017-11-27T06:10:43.106Z,2.50
2017-11-27T06:13:11.994Z,2.40
2017-11-27T06:15:40.847Z,1.90
2017-11-27T06:18:09.679Z,1.97
2017-11-27T06:20:38.555Z,2.30
2017-11-27T06:23:07.421Z,2.10
2017-11-27T06:25:36.347Z,2.30
2017-11-27T06:28:05.199Z,2.10
2017-11-27T06:30:34.048Z,1.83
2017-11-27T06:33:02.914Z,2.23
2017-11-27T06:35:31.776Z,2.10
2017-11-27T06:38:00.664Z,1.97
2017-11-27T06:40:29.561Z,2.20
2017-11-27T06:42:58.423Z,2.40
2017-11-27T06:45:27.312Z,2.20
2017-11-27T06:47:56.165Z,2.37
2017-11-27T06:50:25.057Z,2.00
2017-11-27T06:52:53.937Z,1.73
2017-11-27T06:55:22.784Z,2.00
2017-11-27T06:57:51.655Z,2.27
2017-11-27T07:00:20.512Z,1.90
2017-11-27T07:02:49.395Z,2.10
2017-11-27T07:05:18.248Z,3.17
2017-11-27T07:07:47.100Z,2.47
2017-11-27T07:10:15.978Z,2.80
2017-11-27T07:12:44.827Z,2.47
2017-11-27T07:15:13.688Z,2.57
2017-11-27T07:17:42.537Z,2.77
2017-11-27T07:20:11.450Z,2.70
2017-11-27T07:22:40.348Z,2.07
2017-11-27T07:25:09.218Z,2.60
2017-11-27T07:27:38.099Z,2.40
2017-11-27T07:30:06.952Z,2.40
2017-11-27T07:32:36.386Z,2.30
2017-11-27T07:35:05.284Z,2.40
2017-11-27T07:37:39.911Z,2.40
2017-11-27T07:40:08.763Z,2.33
2017-11-27T07:42:37.644Z,2.60
2017-11-27T07:45:06.491Z,2.40
2017-11-27T07:47:35.350Z,5.40
2017-11-27T07:50:04.249Z,2.50
2017-11-27T07:52:33.109Z,2.20
2017-11-27T07:55:02.002Z,2.33
2017-11-27T07:57:30.847Z,2.30
2017-11-27T07:59:59.704Z,2.30
2017-11-27T08:02:28.598Z,2.90
2017-11-27T08:04:57.439Z,2.57
2017-11-27T08:07:26.325Z,2.37
2017-11-27T08:09:55.187Z,2.50
2017-11-27T08:12:24.050Z,2.87
2017-11-27T08:14:52.914Z,2.30
2017-11-27T08:17:21.771Z,2.13
2017-11-27T08:19:50.680Z,2.70
2017-11-27T08:22:19.537Z,2.30
2017-11-27T08:24:48.406Z,2.70
2017-11-27T08:27:17.280Z,2.93
2017-11-27T08:29:46.128Z,2.73
2017-11-27T08:32:15.003Z,2.70
2017-11-27T08:34:43.863Z,2.53
2017-11-27T08:37:12.717Z,2.30
2017-11-27T08:39:41.604Z,2.10
2017-11-27T08:42:10.461Z,2.77
2017-11-27T08:44:39.353Z,2.07
2017-11-27T08:47:08.238Z,2.37
2017-11-27T08:49:37.080Z,2.50
2017-11-27T08:52:05.953Z,2.93
2017-11-27T08:54:34.847Z,2.23
2017-11-27T08:57:03.691Z,3.13
2017-11-27T08:59:32.536Z,7.40
2017-11-27T09:02:01.442Z,2.50
2017-11-27T09:04:30.297Z,2.43
2017-11-27T09:06:59.175Z,2.97
2017-11-27T09:09:28.066Z,2.60
2017-11-27T09:11:56.926Z,2.83
2017-11-27T09:14:25.816Z,2.10
2017-11-27T09:16:54.659Z,2.70
2017-11-27T09:19:23.512Z,2.30
2017-11-27T09:21:52.412Z,1.80
2017-11-27T09:24:21.310Z,2.33
2017-11-27T09:26:50.189Z,1.60
2017-11-27T09:29:19.070Z,1.87
2017-11-27T09:31:47.969Z,2.60
2017-11-27T09:34:16.815Z,2.10
2017-11-27T09:36:45.682Z,2.20
2017-11-27T09:39:14.567Z,2.10
2017-11-27T09:41:43.412Z,1.60
2017-11-27T09:44:12.298Z,1.80
2017-11-27T09:46:41.140Z,1.93
2017-11-27T09:49:10.025Z,2.30
2017-11-27T09:51:38.871Z,1.90
2017-11-27T09:54:07.730Z,2.30
2017-11-27T09:56:36.598Z,1.50
2017-11-27T09:59:05.438Z,2.17
2017-11-27T10:01:34.304Z,3.00
2017-11-27T10:04:03.144Z,2.43
2017-11-27T10:06:32.027Z,1.60
2017-11-27T10:09:00.880Z,1.63
2017-11-27T10:11:29.747Z,1.83
2017-11-27T10:13:58.637Z,1.97
2017-11-27T10:16:27.480Z,1.37
2017-11-27T10:18:56.366Z,1.40
2017-11-27T10:21:25.209Z,2.50
2017-11-27T10:23:54.068Z,1.30
2017-11-27T10:26:22.965Z,1.60
2017-11-27T10:28:51.822Z,1.80
2017-11-27T10:31:20.721Z,1.70
2017-11-27T10:33:49.577Z,2.27
2017-11-27T10:36:18.424Z,1.87
2017-11-27T10:38:47.300Z,1.53
2017-11-27T10:41:16.157Z,1.70
2017-11-27T10:43:45.072Z,1.37
2017-11-27T10:46:13.921Z,1.77
2017-11-27T10:48:42.781Z,1.50
2017-11-27T10:51:11.671Z,1.53
2017-11-27T10:53:40.547Z,1.70
2017-11-27T10:56:09.418Z,1.33
2017-11-27T10:58:38.264Z,1.20
2017-11-27T11:01:07.140Z,1.17
2017-11-27T11:03:35.987Z,1.43
2017-11-27T11:06:04.834Z,1.90
2017-11-27T11:08:33.703Z,1.37
2017-11-27T11:11:02.556Z,1.40
2017-11-27T11:13:31.475Z,1.30
2017-11-27T11:16:00.357Z,1.17
2017-11-27T11:18:29.182Z,1.90
2017-11-27T11:20:58.048Z,1.23
2017-11-27T11:23:26.899Z,1.20
2017-11-27T11:25:55.792Z,1.97
2017-11-27T11:28:24.636Z,1.40
2017-11-27T11:30:53.608Z,1.10
2017-11-27T11:33:22.467Z,1.37
2017-11-27T11:35:51.342Z,1.00
2017-11-27T11:38:20.208Z,1.00
2017-11-27T11:40:49.080Z,0.90
2017-11-27T11:43:17.976Z,1.33
2017-11-27T11:45:46.824Z,1.03
2017-11-27T11:48:16.216Z,1.50
2017-11-27T11:50:45.086Z,1.20
2017-11-27T11:53:13.942Z,1.00
2017-11-27T11:55:42.857Z,1.10
2017-11-27T11:58:11.764Z,1.20
2017-11-27T12:00:40.619Z,1.50
2017-11-27T12:03:09.482Z,1.20
2017-11-27T12:05:38.381Z,1.80
2017-11-27T12:08:07.255Z,1.10
2017-11-27T12:10:36.107Z,1.40
2017-11-27T12:13:04.979Z,0.80
2017-11-27T12:15:33.834Z,1.10
2017-11-27T12:18:02.755Z,1.30
2017-11-27T12:20:31.610Z,0.93
2017-11-27T12:23:00.480Z,1.13
2017-11-27T12:25:29.362Z,1.50
2017-11-27T12:27:58.210Z,1.10
2017-11-27T12:30:27.094Z,1.43
2017-11-27T12:32:55.959Z,1.20
2017-11-27T12:35:24.820Z,1.23
2017-11-27T12:37:53.679Z,1.30
2017-11-27T12:40:22.530Z,1.03
2017-11-27T12:42:51.501Z,0.93
2017-11-27T12:45:20.354Z,1.20
2017-11-27T12:47:49.203Z,1.77
2017-11-27T12:50:18.173Z,1.10
2017-11-27T12:52:47.032Z,1.33
2017-11-27T12:55:16.048Z,1.17
2017-11-27T12:57:44.900Z,0.83
2017-11-27T13:00:13.744Z,1.20
2017-11-27T13:02:42.603Z,0.97
2017-11-27T13:05:11.448Z,1.20
2017-11-27T13:07:40.347Z,1.20
2017-11-27T13:10:09.201Z,1.00
2017-11-27T13:12:38.074Z,1.27
2017-11-27T13:15:06.948Z,1.27
2017-11-27T13:17:35.802Z,1.00
2017-11-27T13:20:04.891Z,1.30
2017-11-27T13:22:33.740Z,1.03
2017-11-27T13:25:02.623Z,0.90
2017-11-27T13:27:31.492Z,0.93
2017-11-27T13:30:00.507Z,0.97
2017-11-27T13:32:29.349Z,0.80
2017-11-27T13:34:58.202Z,0.80
2017-11-27T13:37:27.074Z,1.20
2017-11-27T13:39:55.924Z,1.40
2017-11-27T13:42:24.803Z,1.00
2017-11-27T13:44:53.661Z,1.07
2017-11-27T13:47:22.511Z,1.07
2017-11-27T13:49:51.367Z,1.00
2017-11-27T13:52:20.219Z,0.90
2017-11-27T13:54:49.134Z,0.70
2017-11-27T13:57:17.996Z,1.00
2017-11-27T13:59:46.853Z,1.23
2017-11-27T14:02:15.716Z,0.80
2017-11-27T14:04:44.646Z,1.00
2017-11-27T14:07:13.638Z,1.13
2017-11-27T14:09:42.483Z,1.10
2017-11-27T14:12:11.356Z,1.37
2017-11-27T14:14:40.217Z,1.00
2017-11-27T14:17:09.065Z,0.80
2017-11-27T14:19:37.983Z,1.30
2017-11-27T14:22:06.831Z,0.90
2017-11-27T14:24:35.704Z,1.20
2017-11-27T14:27:04.568Z,0.93
2017-11-27T14:29:33.441Z,0.83
2017-11-27T14:32:02.334Z,0.80
2017-11-27T14:34:31.179Z,0.83
2017-11-27T14:37:00.031Z,1.13
2017-11-27T14:39:28.896Z,0.80
2017-11-27T14:41:57.745Z,1.10
2017-11-27T14:44:26.640Z,1.10
2017-11-27T14:46:55.497Z,1.20
2017-11-27T14:49:24.358Z,0.90
2017-11-27T14:51:53.247Z,1.30
2017-11-27T14:54:22.099Z,0.90
2017-11-27T14:56:50.965Z,1.03
2017-11-27T14:59:19.811Z,1.27
2017-11-27T15:01:48.683Z,1.10
2017-11-27T15:04:17.535Z,1.27
2017-11-27T15:06:46.391Z,1.27
2017-11-27T15:09:15.269Z,1.40
2017-11-27T15:11:44.129Z,1.40
2017-11-27T15:14:13.002Z,1.17
2017-11-27T15:16:41.853Z,1.10
2017-11-27T15:19:10.720Z,1.07
2017-11-27T15:21:39.560Z,1.13
2017-11-27T15:24:08.435Z,0.80
2017-11-27T15:26:37.280Z,1.00
2017-11-27T15:29:06.164Z,1.03
2017-11-27T15:31:35.012Z,0.80
2017-11-27T15:34:03.890Z,0.80
2017-11-27T15:36:32.767Z,1.10
2017-11-27T15:39:01.626Z,0.90
2017-11-27T15:41:30.510Z,1.30
2017-11-27T15:43:59.363Z,1.53
2017-11-27T15:46:28.215Z,1.40
2017-11-27T15:48:57.080Z,0.90
2017-11-27T15:51:25.955Z,1.20
2017-11-27T15:53:54.820Z,1.43
2017-11-27T15:56:23.677Z,1.40
2017-11-27T15:58:52.540Z,1.10
2017-11-27T16:01:21.388Z,1.00
2017-11-27T16:03:50.295Z,0.80
2017-11-27T16:06:19.164Z,1.10
2017-11-27T16:08:48.095Z,0.90
2017-11-27T16:11:16.934Z,1.00
2017-11-27T16:13:45.879Z,0.80
2017-11-27T16:16:14.749Z,0.90
2017-11-27T16:18:43.612Z,1.10
2017-11-27T16:21:12.521Z,1.13
2017-11-27T16:23:41.371Z,0.90
2017-11-27T16:26:10.226Z,0.83
2017-11-27T16:28:39.106Z,1.10
2017-11-27T16:31:07.948Z,1.10
2017-11-27T16:33:36.808Z,0.87
2017-11-27T16:36:05.671Z,0.80
2017-11-27T16:38:34.513Z,0.83
2017-11-27T16:41:03.378Z,0.93
2017-11-27T16:43:32.232Z,1.03
2017-11-27T16:46:01.107Z,1.00
2017-11-27T16:48:29.977Z,0.80
2017-11-27T16:50:58.868Z,0.70
2017-11-27T16:53:27.735Z,1.00
2017-11-27T16:55:56.585Z,0.80
2017-11-27T16:58:25.460Z,3.63
2017-11-27T17:00:54.312Z,3.20
2017-11-27T17:03:23.166Z,1.20
2017-11-27T17:05:52.033Z,1.23
2017-11-27T17:08:20.879Z,0.90
2017-11-27T17:10:49.760Z,0.93
2017-11-27T17:13:18.661Z,1.00
2017-11-27T17:15:47.507Z,1.10
2017-11-27T17:18:16.429Z,0.83
2017-11-27T17:20:45.268Z,0.93
2017-11-27T17:23:14.298Z,0.73
2017-11-27T17:25:43.141Z,0.90
2017-11-27T17:28:11.998Z,1.17
2017-11-27T17:30:40.869Z,0.90
2017-11-27T17:33:09.718Z,0.73
2017-11-27T17:35:38.616Z,0.77
2017-11-27T17:38:07.470Z,1.00
2017-11-27T17:40:36.322Z,1.00
2017-11-27T17:43:05.195Z,1.10
2017-11-27T17:45:34.047Z,0.80
2017-11-27T17:48:02.965Z,0.70
2017-11-27T17:50:31.827Z,1.00
2017-11-27T17:53:00.676Z,1.00
2017-11-27T17:55:29.533Z,1.00
2017-11-27T17:57:58.384Z,1.10
2017-11-27T18:00:27.344Z,1.30
2017-11-27T18:02:56.302Z,0.90
2017-11-27T18:05:25.187Z,1.10
2017-11-27T18:07:54.048Z,1.10
2017-11-27T18:10:22.916Z,1.17
2017-11-27T18:12:51.817Z,1.63
2017-11-27T18:15:20.651Z,1.23
2017-11-27T18:17:49.521Z,0.97
2017-11-27T18:20:18.384Z,1.30
2017-11-27T18:22:47.374Z,1.50
2017-11-27T18:25:16.280Z,1.60
2017-11-27T18:27:45.148Z,1.23
2017-11-27T18:30:14.078Z,0.90
2017-11-27T18:32:42.939Z,0.70
2017-11-27T18:35:11.799Z,1.00
2017-11-27T18:37:40.652Z,0.90
2017-11-27T18:40:09.560Z,0.90
2017-11-27T18:42:38.427Z,0.80
2017-11-27T18:45:07.274Z,0.90
2017-11-27T18:47:36.169Z,0.90
2017-11-27T18:50:05.032Z,1.00
2017-11-27T18:52:34.056Z,1.00
2017-11-27T18:55:03.017Z,0.70
2017-11-27T18:57:31.913Z,0.90
2017-11-27T19:00:00.795Z,0.90
2017-11-27T19:02:29.647Z,1.20
2017-11-27T19:04:58.566Z,1.20
2017-11-27T19:07:27.491Z,0.80
2017-11-27T19:09:56.394Z,1.00
2017-11-27T19:12:25.272Z,1.13
2017-11-27T19:14:54.144Z,1.13
2017-11-27T19:17:23.085Z,0.87
2017-11-27T19:19:52.175Z,1.03
2017-11-27T19:22:21.081Z,0.80
2017-11-27T19:24:49.938Z,0.90
2017-11-27T19:27:18.839Z,0.90
2017-11-27T19:29:47.691Z,0.80
2017-11-27T19:32:16.567Z,3.40
2017-11-27T19:34:45.464Z,2.70
2017-11-27T19:37:15.239Z,0.97
2017-11-27T19:39:44.963Z,0.90
2017-11-27T19:42:13.866Z,0.60
2017-11-27T19:44:42.785Z,0.80
2017-11-27T19:47:11.636Z,1.00
2017-11-27T19:49:40.490Z,0.60
2017-11-27T19:52:09.354Z,0.90
2017-11-27T19:54:38.222Z,0.70
2017-11-27T19:57:07.103Z,0.60
2017-11-27T19:59:35.955Z,0.80
2017-11-27T20:02:04.975Z,2.20
2017-11-27T20:04:34.331Z,0.80
2017-11-27T20:07:03.264Z,0.93
2017-11-27T20:09:32.138Z,0.80
2017-11-27T20:12:01.005Z,0.77
2017-11-27T20:14:29.920Z,0.67
2017-11-27T20:16:58.897Z,0.80
2017-11-27T20:19:27.770Z,0.80
2017-11-27T20:21:56.668Z,0.70
2017-11-27T20:24:25.519Z,0.70
2017-11-27T20:26:54.404Z,0.80
2017-11-27T20:29:23.253Z,0.93
2017-11-27T20:31:52.099Z,0.70
2017-11-27T20:34:20.997Z,1.10
2017-11-27T20:36:49.848Z,0.73
2017-11-27T20:39:18.720Z,0.53
2017-11-27T20:41:47.607Z,0.60
2017-11-27T20:44:16.472Z,0.70
2017-11-27T20:46:45.324Z,0.60
2017-11-27T20:49:14.180Z,0.90
2017-11-27T20:51:43.067Z,0.97
2017-11-27T20:54:11.941Z,0.80
2017-11-27T20:56:40.815Z,0.60
2017-11-27T20:59:09.655Z,0.60
2017-11-27T21:01:38.634Z,0.87
2017-11-27T21:04:07.486Z,7.43
2017-11-27T21:06:36.346Z,0.80
2017-11-27T21:09:05.212Z,0.80
2017-11-27T21:11:34.056Z,0.70
2017-11-27T21:14:02.968Z,0.73
2017-11-27T21:16:31.916Z,0.70
2017-11-27T21:19:00.767Z,0.70
2017-11-27T21:21:29.647Z,0.80
2017-11-27T21:23:58.510Z,0.63
2017-11-27T21:26:27.407Z,0.80
2017-11-27T21:28:56.252Z,0.60
2017-11-27T21:31:25.150Z,0.70
2017-11-27T21:33:54.021Z,0.87
2017-11-27T21:36:22.884Z,0.57
2017-11-27T21:38:51.744Z,0.70
2017-11-27T21:41:20.591Z,0.80
2017-11-27T21:43:49.512Z,0.60
2017-11-27T21:46:18.375Z,0.80
2017-11-27T21:48:47.247Z,0.60
2017-11-27T21:51:16.115Z,0.63
2017-11-27T21:53:44.959Z,0.60
2017-11-27T21:56:13.869Z,0.87
2017-11-27T21:58:42.715Z,1.27
2017-11-27T22:01:11.614Z,0.80
2017-11-27T22:03:40.466Z,0.50
2017-11-27T22:06:09.315Z,0.70
2017-11-27T22:08:38.200Z,0.70
2017-11-27T22:11:07.069Z,0.60
2017-11-27T22:13:35.920Z,0.60
2017-11-27T22:16:04.843Z,0.70
2017-11-27T22:18:33.691Z,3.20
2017-11-27T22:21:02.571Z,0.77
2017-11-27T22:23:31.495Z,0.67
2017-11-27T22:26:00.361Z,1.00
2017-11-27T22:28:29.231Z,0.60
2017-11-27T22:30:58.082Z,0.80
2017-11-27T22:33:27.015Z,0.60
2017-11-27T22:35:55.895Z,0.70
2017-11-27T22:38:24.743Z,0.70
2017-11-27T22:40:53.610Z,0.70
2017-11-27T22:43:22.465Z,0.60
2017-11-27T22:45:51.371Z,0.67
2017-11-27T22:48:20.232Z,0.60
2017-11-27T22:50:49.083Z,0.67
2017-11-27T22:53:17.950Z,0.87
2017-11-27T22:55:46.804Z,0.70
2017-11-27T22:58:15.694Z,0.80
2017-11-27T23:00:44.569Z,0.80
2017-11-27T23:03:13.455Z,0.87
2017-11-27T23:05:42.346Z,1.20
2017-11-27T23:08:11.191Z,1.10
2017-11-27T23:10:40.062Z,1.17
2017-11-27T23:13:08.945Z,1.40
2017-11-27T23:15:37.862Z,1.47
2017-11-27T23:18:06.776Z,1.63
2017-11-27T23:20:35.675Z,1.17
2017-11-27T23:23:04.525Z,1.30
2017-11-27T23:25:33.384Z,1.10
2017-11-27T23:28:02.530Z,1.20
2017-11-27T23:30:31.395Z,1.50
2017-11-27T23:33:00.241Z,1.33
2017-11-27T23:35:29.111Z,1.23
2017-11-27T23:37:57.960Z,1.10
2017-11-27T23:40:26.855Z,1.37
2017-11-27T23:42:55.782Z,1.47
2017-11-27T23:45:24.626Z,1.10
2017-11-27T23:47:53.504Z,1.20
2017-11-27T23:50:22.386Z,0.70
2017-11-27T23:52:51.277Z,0.70
2017-11-27T23:55:20.118Z,0.70
2017-11-27T23:57:48.967Z,0.70
